sensor_id;sensor_type;location;lat;lon;timestamp;temperature;humidity
7512;DHT22;9999;48.780;9.146;2022-07-26T00:02:16;22.30;99.90
7512;DHT22;9999;48.780;9.146;2022-07-26T00:04:42;22.40;99.90
7512;DHT22;9999;48.780;9.146;2022-07-26T00:07:09;22.40;99.90
7512;DHT22;9999;48.780;9.146;2022-07-26T00:09:37;22.40;99.90
7512;DHT22;9999;48.780;9.146;2022-07-26T00:12:05;22.50;99.90
7512;DHT22;9999;48.780;9.146;2022-07-26T00:14:31;22.40;99.90
7512;DHT22;9999;48.780;9.146;2022-07-26T00:16:58;22.40;99.90
7512;DHT22;9999;48.780;9.146;2022-07-26T00:19:25;22.40;99.90
7512;DHT22;9999;48.780;9.146;2022-07-26T00:21:52;22.40;99.90
7512;DHT22;9999;48.780;9.146;2022-07-26T00:24:32;22.40;99.90
7512;DHT22;9999;48.780;9.146;2022-07-26T00:27:01;22.50;99.90
7512;DHT22;9999;48.780;9.146;2022-07-26T00:29:28;22.50;99.90
7512;DHT22;9999;48.780;9.146;2022-07-26T00:31:55;22.50;99.90
7512;DHT22;9999;48.780;9.146;2022-07-26T00:34:21;22.60;99.90
7512;DHT22;9999;48.780;9.146;2022-07-26T00:36:48;22.60;99.90
7512;DHT22;9999;48.780;9.146;2022-07-26T00:39:15;22.50;99.90
7512;DHT22;9999;48.780;9.146;2022-07-26T00:41:42;22.50;99.90
7512;DHT22;9999;48.780;9.146;2022-07-26T00:44:10;22.50;99.90
7512;DHT22;9999;48.780;9.146;2022-07-26T00:46:40;22.50;99.90
7512;DHT22;9999;48.780;9.146;2022-07-26T00:49:07;22.50;99.90
7512;DHT22;9999;48.780;9.146;2022-07-26T00:51:34;22.50;99.90
7512;DHT22;9999;48.780;9.146;2022-07-26T00:54:01;22.50;99.90
7512;DHT22;9999;48.780;9.146;2022-07-26T00:56:28;22.50;99.90
7512;DHT22;9999;48.780;9.146;2022-07-26T00:58:55;22.50;99.90
7512;DHT22;9999;48.780;9.146;2022-07-26T01:01:23;22.50;99.90
7512;DHT22;9999;48.780;9.146;2022-07-26T01:03:51;22.50;99.90
7512;DHT22;9999;48.780;9.146;2022-07-26T01:06:18;22.40;99.90
7512;DHT22;9999;48.780;9.146;2022-07-26T01:08:45;22.40;99.90
7512;DHT22;9999;48.780;9.146;2022-07-26T01:11:12;22.30;99.90
7512;DHT22;9999;48.780;9.146;2022-07-26T01:13:45;22.20;99.90
7512;DHT22;9999;48.780;9.146;2022-07-26T01:16:12;22.20;99.90
7512;DHT22;9999;48.780;9.146;2022-07-26T01:18:40;22.20;99.90
7512;DHT22;9999;48.780;9.146;2022-07-26T01:21:08;22.00;99.90
7512;DHT22;9999;48.780;9.146;2022-07-26T01:23:37;21.90;99.90
7512;DHT22;9999;48.780;9.146;2022-07-26T01:26:04;21.80;99.90
7512;DHT22;9999;48.780;9.146;2022-07-26T01:28:34;21.70;99.90
7512;DHT22;9999;48.780;9.146;2022-07-26T01:31:01;21.60;99.90
7512;DHT22;9999;48.780;9.146;2022-07-26T01:33:28;21.50;99.90
7512;DHT22;9999;48.780;9.146;2022-07-26T01:35:55;21.20;99.90
7512;DHT22;9999;48.780;9.146;2022-07-26T01:38:21;21.30;99.90
7512;DHT22;9999;48.780;9.146;2022-07-26T01:40:50;21.10;99.90
7512;DHT22;9999;48.780;9.146;2022-07-26T01:43:17;21.00;99.90
7512;DHT22;9999;48.780;9.146;2022-07-26T01:45:44;21.00;99.90
7512;DHT22;9999;48.780;9.146;2022-07-26T01:48:10;21.10;99.90
7512;DHT22;9999;48.780;9.146;2022-07-26T01:50:37;21.30;99.90
7512;DHT22;9999;48.780;9.146;2022-07-26T01:53:04;21.40;99.90
7512;DHT22;9999;48.780;9.146;2022-07-26T01:55:31;21.50;99.90
7512;DHT22;9999;48.780;9.146;2022-07-26T01:57:59;21.60;99.90
7512;DHT22;9999;48.780;9.146;2022-07-26T02:00:26;21.60;99.90
7512;DHT22;9999;48.780;9.146;2022-07-26T02:02:53;21.60;99.90
7512;DHT22;9999;48.780;9.146;2022-07-26T02:05:20;21.50;99.90
7512;DHT22;9999;48.780;9.146;2022-07-26T02:07:47;21.60;99.90
7512;DHT22;9999;48.780;9.146;2022-07-26T02:10:14;21.60;99.90
7512;DHT22;9999;48.780;9.146;2022-07-26T02:12:41;21.60;99.90
7512;DHT22;9999;48.780;9.146;2022-07-26T02:15:11;21.70;99.90
7512;DHT22;9999;48.780;9.146;2022-07-26T02:17:38;21.70;99.90
7512;DHT22;9999;48.780;9.146;2022-07-26T02:20:07;21.70;99.90
7512;DHT22;9999;48.780;9.146;2022-07-26T02:22:34;21.70;99.90
7512;DHT22;9999;48.780;9.146;2022-07-26T02:25:01;21.70;99.90
7512;DHT22;9999;48.780;9.146;2022-07-26T02:27:28;21.70;99.90
7512;DHT22;9999;48.780;9.146;2022-07-26T02:29:54;21.60;99.90
7512;DHT22;9999;48.780;9.146;2022-07-26T02:32:22;21.70;99.90
7512;DHT22;9999;48.780;9.146;2022-07-26T02:34:49;21.60;99.90
7512;DHT22;9999;48.780;9.146;2022-07-26T02:37:16;21.70;99.90
7512;DHT22;9999;48.780;9.146;2022-07-26T02:39:43;21.70;99.90
7512;DHT22;9999;48.780;9.146;2022-07-26T02:42:10;21.60;99.90
7512;DHT22;9999;48.780;9.146;2022-07-26T02:44:36;21.60;99.90
7512;DHT22;9999;48.780;9.146;2022-07-26T02:47:03;21.60;99.90
7512;DHT22;9999;48.780;9.146;2022-07-26T02:49:32;21.80;99.90
7512;DHT22;9999;48.780;9.146;2022-07-26T02:51:58;21.60;99.90
7512;DHT22;9999;48.780;9.146;2022-07-26T02:54:25;21.50;99.90
7512;DHT22;9999;48.780;9.146;2022-07-26T02:56:52;21.50;99.90
7512;DHT22;9999;48.780;9.146;2022-07-26T02:59:19;21.60;99.90
7512;DHT22;9999;48.780;9.146;2022-07-26T03:01:45;21.50;99.90
7512;DHT22;9999;48.780;9.146;2022-07-26T03:04:12;21.50;99.90
7512;DHT22;9999;48.780;9.146;2022-07-26T03:06:40;21.50;99.90
7512;DHT22;9999;48.780;9.146;2022-07-26T03:09:07;21.40;99.90
7512;DHT22;9999;48.780;9.146;2022-07-26T03:11:34;21.40;99.90
7512;DHT22;9999;48.780;9.146;2022-07-26T03:14:01;21.40;99.90
7512;DHT22;9999;48.780;9.146;2022-07-26T03:16:28;21.40;99.90
7512;DHT22;9999;48.780;9.146;2022-07-26T03:18:55;21.40;99.90
7512;DHT22;9999;48.780;9.146;2022-07-26T03:21:22;21.30;99.90
7512;DHT22;9999;48.780;9.146;2022-07-26T03:23:50;21.20;99.90
7512;DHT22;9999;48.780;9.146;2022-07-26T03:26:18;21.20;99.90
7512;DHT22;9999;48.780;9.146;2022-07-26T03:28:45;21.10;99.90
7512;DHT22;9999;48.780;9.146;2022-07-26T03:31:12;21.10;99.90
7512;DHT22;9999;48.780;9.146;2022-07-26T03:33:39;21.00;99.90
7512;DHT22;9999;48.780;9.146;2022-07-26T03:36:07;21.00;99.90
7512;DHT22;9999;48.780;9.146;2022-07-26T03:38:35;21.10;99.90
7512;DHT22;9999;48.780;9.146;2022-07-26T03:41:04;21.00;99.90
7512;DHT22;9999;48.780;9.146;2022-07-26T03:43:31;21.00;99.90
7512;DHT22;9999;48.780;9.146;2022-07-26T03:45:58;21.00;99.90
7512;DHT22;9999;48.780;9.146;2022-07-26T03:48:25;20.90;99.90
7512;DHT22;9999;48.780;9.146;2022-07-26T03:50:54;20.90;99.90
7512;DHT22;9999;48.780;9.146;2022-07-26T03:53:21;20.90;99.90
7512;DHT22;9999;48.780;9.146;2022-07-26T03:55:48;20.90;99.90
7512;DHT22;9999;48.780;9.146;2022-07-26T03:58:34;20.90;99.90
7512;DHT22;9999;48.780;9.146;2022-07-26T04:01:01;20.90;99.90
7512;DHT22;9999;48.780;9.146;2022-07-26T04:03:27;20.90;99.90
7512;DHT22;9999;48.780;9.146;2022-07-26T04:05:54;20.90;99.90
7512;DHT22;9999;48.780;9.146;2022-07-26T04:08:21;20.80;99.90
7512;DHT22;9999;48.780;9.146;2022-07-26T04:10:48;20.70;99.90
7512;DHT22;9999;48.780;9.146;2022-07-26T04:13:16;20.70;99.90
7512;DHT22;9999;48.780;9.146;2022-07-26T04:15:44;20.50;99.90
7512;DHT22;9999;48.780;9.146;2022-07-26T04:18:11;20.40;99.90
7512;DHT22;9999;48.780;9.146;2022-07-26T04:20:39;20.40;99.90
7512;DHT22;9999;48.780;9.146;2022-07-26T04:23:05;20.40;99.90
7512;DHT22;9999;48.780;9.146;2022-07-26T04:25:32;20.30;99.90
7512;DHT22;9999;48.780;9.146;2022-07-26T04:27:59;20.40;99.90
7512;DHT22;9999;48.780;9.146;2022-07-26T04:30:26;20.40;99.90
7512;DHT22;9999;48.780;9.146;2022-07-26T04:32:54;20.40;99.90
7512;DHT22;9999;48.780;9.146;2022-07-26T04:35:21;20.30;99.90
7512;DHT22;9999;48.780;9.146;2022-07-26T04:37:48;20.30;99.90
7512;DHT22;9999;48.780;9.146;2022-07-26T04:40:17;20.30;99.90
7512;DHT22;9999;48.780;9.146;2022-07-26T04:42:44;20.20;99.90
7512;DHT22;9999;48.780;9.146;2022-07-26T04:45:11;20.10;99.90
7512;DHT22;9999;48.780;9.146;2022-07-26T04:47:40;20.20;99.90
7512;DHT22;9999;48.780;9.146;2022-07-26T04:50:09;20.20;99.90
7512;DHT22;9999;48.780;9.146;2022-07-26T04:52:36;20.20;99.90
7512;DHT22;9999;48.780;9.146;2022-07-26T04:55:03;20.10;99.90
7512;DHT22;9999;48.780;9.146;2022-07-26T04:57:30;20.20;99.90
7512;DHT22;9999;48.780;9.146;2022-07-26T04:59:57;20.10;99.90
7512;DHT22;9999;48.780;9.146;2022-07-26T05:02:25;20.20;99.90
7512;DHT22;9999;48.780;9.146;2022-07-26T05:04:52;20.20;99.90
7512;DHT22;9999;48.780;9.146;2022-07-26T05:07:20;20.20;99.90
7512;DHT22;9999;48.780;9.146;2022-07-26T05:09:46;20.30;99.90
7512;DHT22;9999;48.780;9.146;2022-07-26T05:12:13;20.30;99.90
7512;DHT22;9999;48.780;9.146;2022-07-26T05:14:40;20.20;99.90
7512;DHT22;9999;48.780;9.146;2022-07-26T05:17:08;20.30;99.90
7512;DHT22;9999;48.780;9.146;2022-07-26T05:19:35;20.30;99.90
7512;DHT22;9999;48.780;9.146;2022-07-26T05:22:02;20.30;99.90
7512;DHT22;9999;48.780;9.146;2022-07-26T05:24:30;20.40;99.90
7512;DHT22;9999;48.780;9.146;2022-07-26T05:26:57;20.40;99.90
7512;DHT22;9999;48.780;9.146;2022-07-26T05:29:23;20.40;99.90
7512;DHT22;9999;48.780;9.146;2022-07-26T05:31:51;20.50;99.90
7512;DHT22;9999;48.780;9.146;2022-07-26T05:34:18;20.50;99.90
7512;DHT22;9999;48.780;9.146;2022-07-26T05:36:44;20.50;99.90
7512;DHT22;9999;48.780;9.146;2022-07-26T05:39:11;20.50;99.90
7512;DHT22;9999;48.780;9.146;2022-07-26T05:41:39;20.60;99.90
7512;DHT22;9999;48.780;9.146;2022-07-26T05:44:06;20.60;99.90
7512;DHT22;9999;48.780;9.146;2022-07-26T05:46:34;20.50;99.90
7512;DHT22;9999;48.780;9.146;2022-07-26T05:49:02;20.50;99.90
7512;DHT22;9999;48.780;9.146;2022-07-26T05:51:29;20.40;99.90
7512;DHT22;9999;48.780;9.146;2022-07-26T05:53:56;20.40;99.90
7512;DHT22;9999;48.780;9.146;2022-07-26T05:56:23;20.40;99.90
7512;DHT22;9999;48.780;9.146;2022-07-26T05:58:51;20.40;99.90
7512;DHT22;9999;48.780;9.146;2022-07-26T06:01:18;20.40;99.90
7512;DHT22;9999;48.780;9.146;2022-07-26T06:03:44;20.40;99.90
7512;DHT22;9999;48.780;9.146;2022-07-26T06:06:11;20.40;99.90
7512;DHT22;9999;48.780;9.146;2022-07-26T06:08:38;20.50;99.90
7512;DHT22;9999;48.780;9.146;2022-07-26T06:11:05;20.60;99.90
7512;DHT22;9999;48.780;9.146;2022-07-26T06:13:31;20.70;99.90
7512;DHT22;9999;48.780;9.146;2022-07-26T06:16:00;20.70;99.90
7512;DHT22;9999;48.780;9.146;2022-07-26T06:18:26;20.80;99.90
7512;DHT22;9999;48.780;9.146;2022-07-26T06:20:53;20.90;99.90
7512;DHT22;9999;48.780;9.146;2022-07-26T06:23:20;21.00;99.90
7512;DHT22;9999;48.780;9.146;2022-07-26T06:25:47;21.00;99.90
7512;DHT22;9999;48.780;9.146;2022-07-26T06:28:14;21.20;99.90
7512;DHT22;9999;48.780;9.146;2022-07-26T06:30:43;21.20;99.90
7512;DHT22;9999;48.780;9.146;2022-07-26T06:33:11;21.40;99.90
7512;DHT22;9999;48.780;9.146;2022-07-26T06:35:38;21.50;99.90
7512;DHT22;9999;48.780;9.146;2022-07-26T06:38:05;21.60;99.90
7512;DHT22;9999;48.780;9.146;2022-07-26T06:40:32;21.70;99.90
7512;DHT22;9999;48.780;9.146;2022-07-26T06:42:59;21.80;99.90
7512;DHT22;9999;48.780;9.146;2022-07-26T06:45:26;22.00;99.90
7512;DHT22;9999;48.780;9.146;2022-07-26T06:47:53;22.20;99.90
7512;DHT22;9999;48.780;9.146;2022-07-26T06:50:22;22.40;99.90
7512;DHT22;9999;48.780;9.146;2022-07-26T06:52:49;22.40;99.90
7512;DHT22;9999;48.780;9.146;2022-07-26T06:55:15;22.50;99.90
7512;DHT22;9999;48.780;9.146;2022-07-26T06:57:42;22.60;99.90
7512;DHT22;9999;48.780;9.146;2022-07-26T07:00:10;22.70;99.90
7512;DHT22;9999;48.780;9.146;2022-07-26T07:02:37;22.80;99.90
7512;DHT22;9999;48.780;9.146;2022-07-26T07:05:04;23.00;99.90
7512;DHT22;9999;48.780;9.146;2022-07-26T07:07:34;23.20;99.90
7512;DHT22;9999;48.780;9.146;2022-07-26T07:10:02;23.40;99.90
7512;DHT22;9999;48.780;9.146;2022-07-26T07:12:29;23.60;99.90
7512;DHT22;9999;48.780;9.146;2022-07-26T07:14:56;23.60;99.90
7512;DHT22;9999;48.780;9.146;2022-07-26T07:17:22;23.70;99.90
7512;DHT22;9999;48.780;9.146;2022-07-26T07:19:49;23.90;99.90
7512;DHT22;9999;48.780;9.146;2022-07-26T07:22:16;24.10;99.90
7512;DHT22;9999;48.780;9.146;2022-07-26T07:24:44;24.30;99.90
7512;DHT22;9999;48.780;9.146;2022-07-26T07:27:11;24.60;99.10
7512;DHT22;9999;48.780;9.146;2022-07-26T07:29:38;24.70;98.90
7512;DHT22;9999;48.780;9.146;2022-07-26T07:32:05;25.00;97.50
7512;DHT22;9999;48.780;9.146;2022-07-26T07:34:32;25.20;96.30
7512;DHT22;9999;48.780;9.146;2022-07-26T07:36:59;25.50;94.80
7512;DHT22;9999;48.780;9.146;2022-07-26T07:39:26;25.60;96.20
7512;DHT22;9999;48.780;9.146;2022-07-26T07:41:54;25.80;92.70
7512;DHT22;9999;48.780;9.146;2022-07-26T07:44:21;25.50;91.70
7512;DHT22;9999;48.780;9.146;2022-07-26T07:46:48;25.50;90.60
7512;DHT22;9999;48.780;9.146;2022-07-26T07:49:15;25.60;92.60
7512;DHT22;9999;48.780;9.146;2022-07-26T07:51:41;25.80;90.10
7512;DHT22;9999;48.780;9.146;2022-07-26T07:54:08;25.90;90.70
7512;DHT22;9999;48.780;9.146;2022-07-26T07:56:35;25.90;90.10
7512;DHT22;9999;48.780;9.146;2022-07-26T07:59:03;26.00;86.40
7512;DHT22;9999;48.780;9.146;2022-07-26T08:01:30;25.80;86.70
7512;DHT22;9999;48.780;9.146;2022-07-26T08:03:57;25.70;88.50
7512;DHT22;9999;48.780;9.146;2022-07-26T08:06:23;26.10;84.60
7512;DHT22;9999;48.780;9.146;2022-07-26T08:08:50;26.10;81.30
7512;DHT22;9999;48.780;9.146;2022-07-26T08:11:17;25.80;84.30
7512;DHT22;9999;48.780;9.146;2022-07-26T08:13:44;25.70;85.50
7512;DHT22;9999;48.780;9.146;2022-07-26T08:16:12;25.70;84.70
7512;DHT22;9999;48.780;9.146;2022-07-26T08:18:39;25.50;84.30
7512;DHT22;9999;48.780;9.146;2022-07-26T08:21:06;25.60;85.20
7512;DHT22;9999;48.780;9.146;2022-07-26T08:23:33;25.80;85.20
7512;DHT22;9999;48.780;9.146;2022-07-26T08:25:59;25.80;82.00
7512;DHT22;9999;48.780;9.146;2022-07-26T08:28:26;25.40;83.80
7512;DHT22;9999;48.780;9.146;2022-07-26T08:30:53;25.60;82.40
7512;DHT22;9999;48.780;9.146;2022-07-26T08:33:21;26.10;82.20
7512;DHT22;9999;48.780;9.146;2022-07-26T08:35:48;26.20;83.50
7512;DHT22;9999;48.780;9.146;2022-07-26T08:38:15;26.30;81.10
7512;DHT22;9999;48.780;9.146;2022-07-26T08:40:42;26.50;79.30
7512;DHT22;9999;48.780;9.146;2022-07-26T08:43:09;26.50;76.10
7512;DHT22;9999;48.780;9.146;2022-07-26T08:45:36;26.40;79.40
7512;DHT22;9999;48.780;9.146;2022-07-26T08:48:03;26.20;81.60
7512;DHT22;9999;48.780;9.146;2022-07-26T08:50:32;26.40;79.90
7512;DHT22;9999;48.780;9.146;2022-07-26T08:53:00;26.40;78.50
7512;DHT22;9999;48.780;9.146;2022-07-26T08:55:28;26.50;79.20
7512;DHT22;9999;48.780;9.146;2022-07-26T08:57:55;26.70;74.40
7512;DHT22;9999;48.780;9.146;2022-07-26T09:00:24;26.90;80.50
7512;DHT22;9999;48.780;9.146;2022-07-26T09:02:52;26.90;75.80
7512;DHT22;9999;48.780;9.146;2022-07-26T09:05:19;27.20;78.40
7512;DHT22;9999;48.780;9.146;2022-07-26T09:07:47;27.30;72.80
7512;DHT22;9999;48.780;9.146;2022-07-26T09:10:14;26.90;72.60
7512;DHT22;9999;48.780;9.146;2022-07-26T09:12:42;26.40;72.10
7512;DHT22;9999;48.780;9.146;2022-07-26T09:15:17;26.50;73.50
7512;DHT22;9999;48.780;9.146;2022-07-26T09:17:45;26.40;71.40
7512;DHT22;9999;48.780;9.146;2022-07-26T09:20:14;26.20;73.20
7512;DHT22;9999;48.780;9.146;2022-07-26T09:22:58;26.40;74.40
7512;DHT22;9999;48.780;9.146;2022-07-26T09:25:25;26.80;73.60
7512;DHT22;9999;48.780;9.146;2022-07-26T09:27:53;26.70;70.40
7512;DHT22;9999;48.780;9.146;2022-07-26T09:30:21;26.20;72.00
7512;DHT22;9999;48.780;9.146;2022-07-26T09:32:59;25.80;74.20
7512;DHT22;9999;48.780;9.146;2022-07-26T09:35:27;25.40;73.70
7512;DHT22;9999;48.780;9.146;2022-07-26T09:37:56;25.60;73.80
7512;DHT22;9999;48.780;9.146;2022-07-26T09:40:24;26.00;73.50
7512;DHT22;9999;48.780;9.146;2022-07-26T09:42:58;26.40;74.00
7512;DHT22;9999;48.780;9.146;2022-07-26T09:45:27;26.50;72.60
7512;DHT22;9999;48.780;9.146;2022-07-26T09:47:54;26.40;72.20
7512;DHT22;9999;48.780;9.146;2022-07-26T09:50:22;26.20;71.60
7512;DHT22;9999;48.780;9.146;2022-07-26T09:53:03;26.20;73.70
7512;DHT22;9999;48.780;9.146;2022-07-26T09:55:33;26.50;72.70
7512;DHT22;9999;48.780;9.146;2022-07-26T09:58:00;26.70;71.60
7512;DHT22;9999;48.780;9.146;2022-07-26T10:00:32;26.80;72.10
7512;DHT22;9999;48.780;9.146;2022-07-26T10:02:59;26.70;72.00
7512;DHT22;9999;48.780;9.146;2022-07-26T10:05:26;26.50;73.10
7512;DHT22;9999;48.780;9.146;2022-07-26T10:07:53;26.30;70.90
7512;DHT22;9999;48.780;9.146;2022-07-26T10:10:29;26.40;75.00
7512;DHT22;9999;48.780;9.146;2022-07-26T10:12:58;26.00;71.30
7512;DHT22;9999;48.780;9.146;2022-07-26T10:15:39;25.60;73.40
7512;DHT22;9999;48.780;9.146;2022-07-26T10:18:08;25.70;74.30
7512;DHT22;9999;48.780;9.146;2022-07-26T10:20:47;25.80;74.30
7512;DHT22;9999;48.780;9.146;2022-07-26T10:23:40;26.30;75.30
7512;DHT22;9999;48.780;9.146;2022-07-26T10:26:11;26.60;72.60
7512;DHT22;9999;48.780;9.146;2022-07-26T10:28:39;26.70;75.40
7512;DHT22;9999;48.780;9.146;2022-07-26T10:31:30;27.00;71.10
7512;DHT22;9999;48.780;9.146;2022-07-26T10:33:58;27.10;74.40
7512;DHT22;9999;48.780;9.146;2022-07-26T10:36:31;26.90;71.30
7512;DHT22;9999;48.780;9.146;2022-07-26T10:39:10;27.10;74.80
7512;DHT22;9999;48.780;9.146;2022-07-26T10:41:42;27.40;73.70
7512;DHT22;9999;48.780;9.146;2022-07-26T10:44:18;27.30;70.40
7512;DHT22;9999;48.780;9.146;2022-07-26T10:47:13;26.70;70.50
7512;DHT22;9999;48.780;9.146;2022-07-26T10:49:54;26.30;70.50
7512;DHT22;9999;48.780;9.146;2022-07-26T10:52:24;26.20;71.40
7512;DHT22;9999;48.780;9.146;2022-07-26T10:55:05;26.30;73.10
7512;DHT22;9999;48.780;9.146;2022-07-26T10:57:35;26.80;72.80
7512;DHT22;9999;48.780;9.146;2022-07-26T11:00:11;27.40;70.90
7512;DHT22;9999;48.780;9.146;2022-07-26T11:02:38;27.80;72.80
7512;DHT22;9999;48.780;9.146;2022-07-26T11:05:08;28.00;69.60
7512;DHT22;9999;48.780;9.146;2022-07-26T11:07:53;28.20;67.80
7512;DHT22;9999;48.780;9.146;2022-07-26T11:10:22;28.00;68.60
7512;DHT22;9999;48.780;9.146;2022-07-26T11:12:59;27.60;66.00
7512;DHT22;9999;48.780;9.146;2022-07-26T11:15:26;27.10;65.60
7512;DHT22;9999;48.780;9.146;2022-07-26T11:18:06;27.10;68.10
7512;DHT22;9999;48.780;9.146;2022-07-26T11:20:33;27.10;66.00
7512;DHT22;9999;48.780;9.146;2022-07-26T11:22:59;26.70;71.10
7512;DHT22;9999;48.780;9.146;2022-07-26T11:25:26;26.60;68.00
7512;DHT22;9999;48.780;9.146;2022-07-26T11:28:03;26.60;71.30
7512;DHT22;9999;48.780;9.146;2022-07-26T11:30:30;27.00;68.20
7512;DHT22;9999;48.780;9.146;2022-07-26T11:32:57;27.10;66.60
7512;DHT22;9999;48.780;9.146;2022-07-26T11:35:24;27.00;66.40
7512;DHT22;9999;48.780;9.146;2022-07-26T11:37:53;27.20;69.60
7512;DHT22;9999;48.780;9.146;2022-07-26T11:40:43;27.20;67.80
7512;DHT22;9999;48.780;9.146;2022-07-26T11:43:12;27.60;68.40
7512;DHT22;9999;48.780;9.146;2022-07-26T11:45:39;27.50;66.40
7512;DHT22;9999;48.780;9.146;2022-07-26T11:48:06;27.60;66.60
7512;DHT22;9999;48.780;9.146;2022-07-26T11:50:33;27.70;65.40
7512;DHT22;9999;48.780;9.146;2022-07-26T11:52:59;27.50;63.40
7512;DHT22;9999;48.780;9.146;2022-07-26T11:55:28;27.20;61.10
7512;DHT22;9999;48.780;9.146;2022-07-26T11:57:55;27.10;66.30
7512;DHT22;9999;48.780;9.146;2022-07-26T12:00:30;27.00;66.20
7512;DHT22;9999;48.780;9.146;2022-07-26T12:02:57;27.20;66.90
7512;DHT22;9999;48.780;9.146;2022-07-26T12:05:24;27.70;64.30
7512;DHT22;9999;48.780;9.146;2022-07-26T12:07:59;27.80;61.50
7512;DHT22;9999;48.780;9.146;2022-07-26T12:10:27;27.20;60.90
7512;DHT22;9999;48.780;9.146;2022-07-26T12:13:08;27.10;63.60
7512;DHT22;9999;48.780;9.146;2022-07-26T12:15:48;26.90;62.00
7512;DHT22;9999;48.780;9.146;2022-07-26T12:18:22;27.10;64.00
7512;DHT22;9999;48.780;9.146;2022-07-26T12:20:57;27.50;63.90
7512;DHT22;9999;48.780;9.146;2022-07-26T12:23:24;27.50;59.70
7512;DHT22;9999;48.780;9.146;2022-07-26T12:25:51;27.00;60.90
7512;DHT22;9999;48.780;9.146;2022-07-26T12:28:39;26.90;64.00
7512;DHT22;9999;48.780;9.146;2022-07-26T12:31:20;27.30;61.20
7512;DHT22;9999;48.780;9.146;2022-07-26T12:33:48;27.40;61.00
7512;DHT22;9999;48.780;9.146;2022-07-26T12:36:18;27.50;60.90
7512;DHT22;9999;48.780;9.146;2022-07-26T12:38:45;27.60;59.20
7512;DHT22;9999;48.780;9.146;2022-07-26T12:41:12;27.80;63.00
7512;DHT22;9999;48.780;9.146;2022-07-26T12:43:55;28.00;59.60
7512;DHT22;9999;48.780;9.146;2022-07-26T12:46:26;28.00;61.00
7512;DHT22;9999;48.780;9.146;2022-07-26T12:48:52;27.90;58.60
7512;DHT22;9999;48.780;9.146;2022-07-26T12:51:19;27.70;58.70
7512;DHT22;9999;48.780;9.146;2022-07-26T12:53:46;27.10;58.20
7512;DHT22;9999;48.780;9.146;2022-07-26T12:56:13;26.80;60.50
7512;DHT22;9999;48.780;9.146;2022-07-26T12:58:39;26.70;59.00
7512;DHT22;9999;48.780;9.146;2022-07-26T13:01:06;27.00;61.30
7512;DHT22;9999;48.780;9.146;2022-07-26T13:03:34;27.20;57.30
7512;DHT22;9999;48.780;9.146;2022-07-26T13:06:01;27.20;58.80
7512;DHT22;9999;48.780;9.146;2022-07-26T13:08:28;27.30;57.90
7512;DHT22;9999;48.780;9.146;2022-07-26T13:10:55;27.30;56.70
7512;DHT22;9999;48.780;9.146;2022-07-26T13:13:22;26.80;57.50
7512;DHT22;9999;48.780;9.146;2022-07-26T13:15:49;26.80;58.50
7512;DHT22;9999;48.780;9.146;2022-07-26T13:18:15;27.00;58.20
7512;DHT22;9999;48.780;9.146;2022-07-26T13:20:43;27.40;57.60
7512;DHT22;9999;48.780;9.146;2022-07-26T13:23:10;27.10;57.10
7512;DHT22;9999;48.780;9.146;2022-07-26T13:25:37;26.70;57.10
7512;DHT22;9999;48.780;9.146;2022-07-26T13:28:04;26.70;59.60
7512;DHT22;9999;48.780;9.146;2022-07-26T13:30:31;26.80;58.30
7512;DHT22;9999;48.780;9.146;2022-07-26T13:32:58;26.90;56.80
7512;DHT22;9999;48.780;9.146;2022-07-26T13:35:24;27.00;58.70
7512;DHT22;9999;48.780;9.146;2022-07-26T13:37:53;27.10;57.70
7512;DHT22;9999;48.780;9.146;2022-07-26T13:40:19;27.20;56.90
7512;DHT22;9999;48.780;9.146;2022-07-26T13:42:47;27.30;56.20
7512;DHT22;9999;48.780;9.146;2022-07-26T13:45:14;27.40;54.50
7512;DHT22;9999;48.780;9.146;2022-07-26T13:47:41;27.60;56.50
7512;DHT22;9999;48.780;9.146;2022-07-26T13:50:09;27.60;54.60
7512;DHT22;9999;48.780;9.146;2022-07-26T13:52:36;27.50;55.50
7512;DHT22;9999;48.780;9.146;2022-07-26T13:55:04;27.60;54.40
7512;DHT22;9999;48.780;9.146;2022-07-26T13:57:31;27.80;54.90
7512;DHT22;9999;48.780;9.146;2022-07-26T13:59:58;28.20;56.10
7512;DHT22;9999;48.780;9.146;2022-07-26T14:02:25;28.40;52.50
7512;DHT22;9999;48.780;9.146;2022-07-26T14:04:51;28.40;53.20
7512;DHT22;9999;48.780;9.146;2022-07-26T14:07:18;28.40;52.60
7512;DHT22;9999;48.780;9.146;2022-07-26T14:09:45;28.50;51.90
7512;DHT22;9999;48.780;9.146;2022-07-26T14:12:13;28.60;54.10
7512;DHT22;9999;48.780;9.146;2022-07-26T14:14:40;28.80;54.80
7512;DHT22;9999;48.780;9.146;2022-07-26T14:17:06;28.60;52.20
7512;DHT22;9999;48.780;9.146;2022-07-26T14:19:33;28.70;52.70
7512;DHT22;9999;48.780;9.146;2022-07-26T14:22:01;28.60;52.70
7512;DHT22;9999;48.780;9.146;2022-07-26T14:24:28;28.70;51.50
7512;DHT22;9999;48.780;9.146;2022-07-26T14:26:55;28.40;50.00
7512;DHT22;9999;48.780;9.146;2022-07-26T14:29:23;27.70;49.50
7512;DHT22;9999;48.780;9.146;2022-07-26T14:31:50;27.30;51.90
7512;DHT22;9999;48.780;9.146;2022-07-26T14:34:17;27.20;54.30
7512;DHT22;9999;48.780;9.146;2022-07-26T14:36:43;27.50;55.60
7512;DHT22;9999;48.780;9.146;2022-07-26T14:39:10;27.60;53.20
7512;DHT22;9999;48.780;9.146;2022-07-26T14:41:37;27.30;52.30
7512;DHT22;9999;48.780;9.146;2022-07-26T14:44:04;26.80;54.60
7512;DHT22;9999;48.780;9.146;2022-07-26T14:46:32;26.80;55.60
7512;DHT22;9999;48.780;9.146;2022-07-26T14:48:59;26.70;53.70
7512;DHT22;9999;48.780;9.146;2022-07-26T14:51:26;26.50;54.20
7512;DHT22;9999;48.780;9.146;2022-07-26T14:53:53;26.70;55.60
7512;DHT22;9999;48.780;9.146;2022-07-26T14:56:20;26.90;56.50
7512;DHT22;9999;48.780;9.146;2022-07-26T14:58:47;27.00;54.00
7512;DHT22;9999;48.780;9.146;2022-07-26T15:01:14;27.10;55.10
7512;DHT22;9999;48.780;9.146;2022-07-26T15:03:43;27.20;52.60
7512;DHT22;9999;48.780;9.146;2022-07-26T15:06:09;27.10;54.80
7512;DHT22;9999;48.780;9.146;2022-07-26T15:08:36;27.30;54.40
7512;DHT22;9999;48.780;9.146;2022-07-26T15:11:03;27.50;55.00
7512;DHT22;9999;48.780;9.146;2022-07-26T15:13:30;27.60;54.10
7512;DHT22;9999;48.780;9.146;2022-07-26T15:15:57;27.40;56.00
7512;DHT22;9999;48.780;9.146;2022-07-26T15:18:24;27.10;53.00
7512;DHT22;9999;48.780;9.146;2022-07-26T15:20:52;26.90;54.80
7512;DHT22;9999;48.780;9.146;2022-07-26T15:23:19;26.80;54.70
7512;DHT22;9999;48.780;9.146;2022-07-26T15:25:46;26.80;55.10
7512;DHT22;9999;48.780;9.146;2022-07-26T15:28:14;26.80;55.10
7512;DHT22;9999;48.780;9.146;2022-07-26T15:30:40;26.90;57.40
7512;DHT22;9999;48.780;9.146;2022-07-26T15:33:07;26.90;55.30
7512;DHT22;9999;48.780;9.146;2022-07-26T15:35:34;27.10;55.00
7512;DHT22;9999;48.780;9.146;2022-07-26T15:38:02;27.00;54.20
7512;DHT22;9999;48.780;9.146;2022-07-26T15:40:29;27.10;53.40
7512;DHT22;9999;48.780;9.146;2022-07-26T15:42:56;27.20;54.30
7512;DHT22;9999;48.780;9.146;2022-07-26T15:45:23;27.20;54.30
7512;DHT22;9999;48.780;9.146;2022-07-26T15:47:50;27.20;53.50
7512;DHT22;9999;48.780;9.146;2022-07-26T15:50:17;26.80;53.90
7512;DHT22;9999;48.780;9.146;2022-07-26T15:52:45;26.90;56.20
7512;DHT22;9999;48.780;9.146;2022-07-26T15:55:15;27.10;54.50
7512;DHT22;9999;48.780;9.146;2022-07-26T15:57:42;27.10;54.60
7512;DHT22;9999;48.780;9.146;2022-07-26T16:00:10;27.00;53.70
7512;DHT22;9999;48.780;9.146;2022-07-26T16:02:38;26.90;54.70
7512;DHT22;9999;48.780;9.146;2022-07-26T16:05:06;26.70;54.40
7512;DHT22;9999;48.780;9.146;2022-07-26T16:07:33;26.40;55.30
7512;DHT22;9999;48.780;9.146;2022-07-26T16:10:00;26.30;53.40